Time;durP1;ratioP1;P1;durP2;ratioP2;P2;SDS_P1;SDS_P2;PMS_P1;PMS_P2;Temp;Humidity;BMP_temperature;BMP_pressure;BME280_temperature;BME280_humidity;BME280_pressure;Samples;Min_cycle;Max_cycle;Signal;HPM_P1;HPM_P2
2022/09/11 00:01:12;;;;;;;23.42;8.70;;;;;;;;;;5027163;28;20063;-63
2022/09/11 00:03:37;;;;;;;19.95;7.90;;;;;;;;;;5027452;28;20017;-63
2022/09/11 00:06:05;;;;;;;16.30;7.22;;;;;;;;;;5026721;28;20029;-63
2022/09/11 00:08:31;;;;;;;17.08;7.60;;;;;;;;;;5027119;28;20052;-63
2022/09/11 00:11:03;;;;;;;12.38;7.45;;;;;;;;;;5027110;28;20053;-63
2022/09/11 00:13:30;;;;;;;13.32;7.53;;;;;;;;;;5032978;28;20037;-64
2022/09/11 00:15:56;;;;;;;15.15;6.82;;;;;;;;;;5046637;28;20082;-63
2022/09/11 00:18:21;;;;;;;17.23;7.55;;;;;;;;;;5046575;28;20037;-63
2022/09/11 00:20:48;;;;;;;17.05;7.97;;;;;;;;;;5046666;28;20059;-63
2022/09/11 00:23:16;;;;;;;16.00;7.60;;;;;;;;;;5046565;28;20485;-63
2022/09/11 00:25:42;;;;;;;14.60;7.88;;;;;;;;;;5046430;28;20501;-63
2022/09/11 00:28:12;;;;;;;15.73;7.75;;;;;;;;;;5046512;28;20083;-63
2022/09/11 00:30:37;;;;;;;15.73;7.85;;;;;;;;;;5046650;28;20029;-63
2022/09/11 00:33:03;;;;;;;15.70;7.88;;;;;;;;;;5046296;28;20041;-63
2022/09/11 00:35:29;;;;;;;18.35;8.10;;;;;;;;;;5046703;28;20106;-63
2022/09/11 00:37:54;;;;;;;18.05;7.65;;;;;;;;;;5036318;28;20045;-63
2022/09/11 00:40:21;;;;;;;22.20;8.73;;;;;;;;;;5026798;28;20030;-63
2022/09/11 00:42:52;;;;;;;19.95;8.55;;;;;;;;;;5027175;28;20021;-63
2022/09/11 00:45:24;;;;;;;16.15;8.57;;;;;;;;;;5026526;28;20033;-63
2022/09/11 00:47:51;;;;;;;13.05;7.35;;;;;;;;;;5026718;28;20053;-63
2022/09/11 00:50:20;;;;;;;18.95;8.02;;;;;;;;;;5030880;28;20123;-63
2022/09/11 00:52:59;;;;;;;20.48;8.52;;;;;;;;;;5049537;28;20554;-63
2022/09/11 00:55:30;;;;;;;27.75;10.38;;;;;;;;;;5049465;28;20028;-63
2022/09/11 00:58:02;;;;;;;23.95;10.00;;;;;;;;;;5032107;28;20034;-63
2022/09/11 01:00:28;;;;;;;19.48;9.43;;;;;;;;;;5027412;28;20032;-62
2022/09/11 01:02:54;;;;;;;18.25;7.82;;;;;;;;;;5048933;28;20387;-63
2022/09/11 01:05:23;;;;;;;21.05;9.18;;;;;;;;;;5049633;28;20033;-63
2022/09/11 01:07:53;;;;;;;21.02;9.52;;;;;;;;;;5049708;28;20075;-63
2022/09/11 01:10:39;;;;;;;19.10;8.48;;;;;;;;;;5049834;28;20371;-63
2022/09/11 01:13:26;;;;;;;20.27;8.95;;;;;;;;;;5048048;28;20110;-63
2022/09/11 01:16:03;;;;;;;20.52;9.05;;;;;;;;;;5050011;28;20051;-63
2022/09/11 01:18:56;;;;;;;18.00;8.68;;;;;;;;;;5044181;28;20127;-63
2022/09/11 01:21:39;;;;;;;15.90;8.47;;;;;;;;;;5049490;28;20055;-63
2022/09/11 01:24:08;;;;;;;;;;;;;;;;;;5050095;28;20041;-63
2022/09/11 01:26:51;;;;;;;18.90;8.27;;;;;;;;;;5039873;28;19926;-63
2022/09/11 01:29:45;;;;;;;15.45;8.07;;;;;;;;;;5042818;28;20029;-63
2022/09/11 01:32:20;;;;;;;20.55;8.38;;;;;;;;;;5046255;28;20063;-63
2022/09/11 01:35:15;;;;;;;16.75;7.72;;;;;;;;;;5039696;28;20060;-63
2022/09/11 01:37:51;;;;;;;18.17;9.25;;;;;;;;;;5042731;28;20040;-63
2022/09/11 01:40:30;;;;;;;18.83;8.00;;;;;;;;;;5029438;28;20033;-63
2022/09/11 01:43:04;;;;;;;18.33;8.18;;;;;;;;;;5048812;28;20446;-63
2022/09/11 01:45:32;;;;;;;19.48;8.52;;;;;;;;;;5030478;28;20033;-63
2022/09/11 01:47:59;;;;;;;18.63;9.30;;;;;;;;;;5046144;28;20021;-63
2022/09/11 01:50:27;;;;;;;18.63;9.35;;;;;;;;;;5027902;28;20064;-63
2022/09/11 01:52:57;;;;;;;17.88;8.57;;;;;;;;;;5046257;28;20466;-63
2022/09/11 01:55:30;;;;;;;19.67;8.30;;;;;;;;;;5046144;28;20028;-63
2022/09/11 01:58:05;;;;;;;16.92;7.38;;;;;;;;;;5047689;28;20032;-63
2022/09/11 02:00:34;;;;;;;12.63;6.53;;;;;;;;;;5047302;28;20052;-63
2022/09/11 02:03:08;;;;;;;17.60;7.80;;;;;;;;;;5047755;28;20037;-62
2022/09/11 02:05:50;;;;;;;20.10;8.57;;;;;;;;;;5048601;28;20033;-63
2022/09/11 02:08:21;;;;;;;12.60;7.13;;;;;;;;;;5048292;28;20031;-63
2022/09/11 02:11:09;;;;;;;15.32;7.30;;;;;;;;;;5048611;28;20505;-63
2022/09/11 02:13:44;;;;;;;15.80;7.55;;;;;;;;;;5030309;28;20086;-63
2022/09/11 02:16:52;;;;;;;15.02;7.05;;;;;;;;;;5048660;28;20077;-63
2022/09/11 02:19:22;;;;;;;18.02;8.27;;;;;;;;;;5028376;28;20100;-63
2022/09/11 02:21:49;;;;;;;18.88;7.78;;;;;;;;;;5028847;28;20024;-63
2022/09/11 02:24:15;;;;;;;15.82;7.55;;;;;;;;;;5028488;28;20410;-63
2022/09/11 02:26:52;;;;;;;21.20;9.48;;;;;;;;;;5046562;28;20036;-63
2022/09/11 02:29:19;;;;;;;19.10;7.85;;;;;;;;;;5048177;28;20029;-63
2022/09/11 02:31:45;;;;;;;15.50;7.32;;;;;;;;;;5047993;28;20179;-63
2022/09/11 02:34:12;;;;;;;20.10;7.53;;;;;;;;;;5047447;28;20112;-62
2022/09/11 02:37:22;;;;;;;22.27;8.10;;;;;;;;;;5048771;28;20528;-62
2022/09/11 02:40:13;;;;;;;16.05;7.43;;;;;;;;;;5022017;28;20120;-63
2022/09/11 02:42:53;;;;;;;22.95;7.45;;;;;;;;;;5048329;28;20122;-63
2022/09/11 02:45:25;;;;;;;15.80;6.97;;;;;;;;;;5048109;28;20037;-63
2022/09/11 02:47:53;;;;;;;18.73;7.80;;;;;;;;;;5047829;28;20044;-63
2022/09/11 02:50:21;;;;;;;18.67;8.15;;;;;;;;;;5047949;28;20072;-63
2022/09/11 02:52:51;;;;;;;15.45;7.07;;;;;;;;;;5044924;28;20634;-63
2022/09/11 02:55:24;;;;;;;11.48;6.38;;;;;;;;;;5046886;28;20021;-63
2022/09/11 02:58:04;;;;;;;13.38;6.50;;;;;;;;;;5048482;28;20024;-63
2022/09/11 03:00:30;;;;;;;11.55;6.47;;;;;;;;;;5047440;28;20537;-63
2022/09/11 03:02:56;;;;;;;10.75;6.43;;;;;;;;;;5047854;28;20040;-63
2022/09/11 03:05:22;;;;;;;14.25;7.45;;;;;;;;;;5044293;28;20093;-63
2022/09/11 03:07:48;;;;;;;16.98;7.82;;;;;;;;;;5041453;28;20032;-62
2022/09/11 03:10:13;;;;;;;40.20;9.50;;;;;;;;;;5047309;28;20467;-63
2022/09/11 03:12:39;;;;;;;33.10;8.55;;;;;;;;;;5048368;28;20494;-63
2022/09/11 03:15:05;;;;;;;16.63;8.55;;;;;;;;;;5046969;28;20526;-63
2022/09/11 03:17:31;;;;;;;18.30;7.60;;;;;;;;;;5029923;28;20041;-62
2022/09/11 03:19:57;;;;;;;14.88;7.47;;;;;;;;;;5047480;28;20525;-62
2022/09/11 03:22:22;;;;;;;18.95;8.18;;;;;;;;;;5043145;28;20025;-63
2022/09/11 03:24:47;;;;;;;18.10;9.02;;;;;;;;;;5029895;28;20506;-63
2022/09/11 03:27:13;;;;;;;43.40;9.15;;;;;;;;;;5029464;28;20120;-62
2022/09/11 03:29:39;;;;;;;30.95;8.95;;;;;;;;;;5047274;28;20037;-63
2022/09/11 03:32:05;;;;;;;105.20;9.25;;;;;;;;;;5047002;28;20060;-62
2022/09/11 03:34:30;;;;;;;76.78;8.65;;;;;;;;;;5047395;28;20076;-62
2022/09/11 03:36:55;;;;;;;29.20;7.72;;;;;;;;;;5047918;28;20025;-63
2022/09/11 03:39:21;;;;;;;36.75;7.93;;;;;;;;;;5046130;28;20030;-63
2022/09/11 03:41:46;;;;;;;21.08;7.80;;;;;;;;;;5047253;28;20044;-63
2022/09/11 03:44:11;;;;;;;106.18;8.50;;;;;;;;;;5047185;28;20457;-63
2022/09/11 03:46:37;;;;;;;28.98;8.60;;;;;;;;;;5046881;28;20040;-63
2022/09/11 03:49:02;;;;;;;68.47;8.88;;;;;;;;;;5047442;28;20032;-62
2022/09/11 03:51:27;;;;;;;55.60;8.68;;;;;;;;;;5046579;28;20045;-63
2022/09/11 03:53:53;;;;;;;107.32;8.60;;;;;;;;;;5046962;28;20037;-62
2022/09/11 03:56:19;;;;;;;21.02;7.15;;;;;;;;;;5046727;28;20037;-63
2022/09/11 03:58:44;;;;;;;24.85;7.75;;;;;;;;;;5046895;28;20036;-63
2022/09/11 04:01:12;;;;;;;41.35;8.20;;;;;;;;;;5045068;28;20036;-62
2022/09/11 04:03:38;;;;;;;15.43;7.75;;;;;;;;;;5045704;28;20529;-63
2022/09/11 04:06:04;;;;;;;15.13;7.57;;;;;;;;;;5028536;28;20521;-63
2022/09/11 04:08:32;;;;;;;14.98;7.88;;;;;;;;;;5046713;28;20040;-63
2022/09/11 04:11:03;;;;;;;14.05;6.65;;;;;;;;;;5046601;28;20036;-63
2022/09/11 04:13:31;;;;;;;17.05;7.30;;;;;;;;;;5028734;28;20643;-62
2022/09/11 04:16:17;;;;;;;17.70;8.02;;;;;;;;;;5009424;28;20045;-62
2022/09/11 04:18:44;;;;;;;23.73;6.90;;;;;;;;;;5026823;28;20605;-63
2022/09/11 04:21:13;;;;;;;14.10;7.35;;;;;;;;;;5026855;28;20107;-63
2022/09/11 04:23:40;;;;;;;14.35;7.43;;;;;;;;;;5036879;28;20025;-62
2022/09/11 04:26:25;;;;;;;17.05;7.47;;;;;;;;;;5032359;28;20025;-63
2022/09/11 04:28:50;;;;;;;19.50;8.07;;;;;;;;;;5032673;28;20025;-63
2022/09/11 04:31:17;;;;;;;55.80;8.23;;;;;;;;;;5050948;28;20029;-63
2022/09/11 04:33:43;;;;;;;40.35;9.00;;;;;;;;;;5050956;28;20017;-63
2022/09/11 04:36:17;;;;;;;42.03;8.50;;;;;;;;;;5049063;28;20116;-63
2022/09/11 04:38:43;;;;;;;21.08;7.07;;;;;;;;;;5046153;28;20071;-62
2022/09/11 04:41:09;;;;;;;52.67;8.35;;;;;;;;;;5050404;28;20033;-62
2022/09/11 04:43:37;;;;;;;54.75;9.13;;;;;;;;;;5050492;28;20147;-62
2022/09/11 04:46:09;;;;;;;57.10;7.72;;;;;;;;;;5050437;28;20048;-62
2022/09/11 04:48:37;;;;;;;17.05;7.13;;;;;;;;;;5050725;28;20119;-63
2022/09/11 04:51:07;;;;;;;13.80;7.25;;;;;;;;;;5050027;28;20397;-62
2022/09/11 04:53:34;;;;;;;16.50;7.63;;;;;;;;;;5050395;28;20033;-63
2022/09/11 04:56:06;;;;;;;34.03;8.20;;;;;;;;;;5049714;28;20029;-63
2022/09/11 04:58:32;;;;;;;52.67;8.77;;;;;;;;;;5032032;28;20057;-63
2022/09/11 05:00:57;;;;;;;29.63;8.45;;;;;;;;;;5050509;28;20449;-62
2022/09/11 05:03:23;;;;;;;24.25;8.52;;;;;;;;;;5031992;28;20102;-63
2022/09/11 05:05:49;;;;;;;21.52;9.02;;;;;;;;;;5050080;28;20041;-63
2022/09/11 05:08:14;;;;;;;16.90;8.48;;;;;;;;;;5050131;28;20201;-63
2022/09/11 05:10:41;;;;;;;19.30;7.93;;;;;;;;;;5050061;28;20041;-63
2022/09/11 05:13:07;;;;;;;26.17;7.47;;;;;;;;;;5048547;28;20020;-62
2022/09/11 05:15:33;;;;;;;58.90;8.82;;;;;;;;;;5049669;28;20049;-62
2022/09/11 05:17:58;;;;;;;25.08;7.30;;;;;;;;;;5049609;28;20055;-63
2022/09/11 05:20:24;;;;;;;55.03;8.73;;;;;;;;;;5049708;28;20513;-63
2022/09/11 05:22:49;;;;;;;46.28;9.32;;;;;;;;;;5049965;28;20033;-63
2022/09/11 05:25:17;;;;;;;39.33;9.10;;;;;;;;;;5049208;28;20032;-62
2022/09/11 05:27:42;;;;;;;28.25;8.32;;;;;;;;;;5050159;28;20044;-63
2022/09/11 05:30:08;;;;;;;40.15;8.90;;;;;;;;;;5049321;28;20435;-63
2022/09/11 05:32:34;;;;;;;27.00;9.48;;;;;;;;;;5049355;28;20060;-63
2022/09/11 05:34:59;;;;;;;43.13;9.32;;;;;;;;;;5048912;28;20060;-62
2022/09/11 05:37:24;;;;;;;62.38;10.00;;;;;;;;;;5048489;28;20552;-63
2022/09/11 05:39:50;;;;;;;75.43;10.93;;;;;;;;;;5049576;28;20025;-63
2022/09/11 05:42:16;;;;;;;63.33;10.55;;;;;;;;;;5049079;28;20119;-63
2022/09/11 05:44:42;;;;;;;57.40;10.18;;;;;;;;;;5047758;28;20029;-62
2022/09/11 05:47:08;;;;;;;33.55;10.15;;;;;;;;;;5042443;28;20033;-63
2022/09/11 05:49:33;;;;;;;44.20;10.00;;;;;;;;;;5048915;28;20029;-63
2022/09/11 05:51:58;;;;;;;33.13;9.30;;;;;;;;;;5049443;28;20025;-63
2022/09/11 05:54:24;;;;;;;42.92;10.65;;;;;;;;;;5048008;28;20037;-63
2022/09/11 05:56:49;;;;;;;35.40;9.68;;;;;;;;;;5048757;28;20103;-63
2022/09/11 05:59:15;;;;;;;41.15;9.57;;;;;;;;;;5048516;28;20045;-63
2022/09/11 06:01:42;;;;;;;60.40;10.48;;;;;;;;;;5049012;28;20449;-62
2022/09/11 06:04:11;;;;;;;45.00;10.88;;;;;;;;;;5049014;28;20033;-63
2022/09/11 06:06:36;;;;;;;87.60;10.98;;;;;;;;;;5048860;28;20406;-63
2022/09/11 06:09:03;;;;;;;126.80;11.63;;;;;;;;;;5041684;28;20562;-63
2022/09/11 06:11:28;;;;;;;165.38;12.25;;;;;;;;;;5049029;28;20036;-63
2022/09/11 06:13:54;;;;;;;182.38;11.20;;;;;;;;;;5048680;28;20029;-62
2022/09/11 06:16:21;;;;;;;189.55;12.85;;;;;;;;;;5048045;28;20053;-63
2022/09/11 06:18:48;;;;;;;111.35;11.50;;;;;;;;;;5030993;28;20108;-63
2022/09/11 06:21:18;;;;;;;111.35;11.15;;;;;;;;;;5048482;28;20513;-63
2022/09/11 06:23:43;;;;;;;114.55;11.68;;;;;;;;;;5048440;28;20045;-63
2022/09/11 06:26:12;;;;;;;80.65;11.23;;;;;;;;;;5030317;28;20040;-62
2022/09/11 06:28:38;;;;;;;65.28;11.07;;;;;;;;;;5046638;28;20588;-63
2022/09/11 06:31:07;;;;;;;38.58;9.80;;;;;;;;;;5048392;28;20406;-63
2022/09/11 06:33:37;;;;;;;56.17;10.18;;;;;;;;;;5041168;28;20044;-62
2022/09/11 06:36:05;;;;;;;55.35;9.88;;;;;;;;;;5028196;28;20472;-63
2022/09/11 06:38:30;;;;;;;117.60;10.70;;;;;;;;;;5027493;28;20037;-63
2022/09/11 06:41:01;;;;;;;59.38;10.65;;;;;;;;;;5028420;28;20048;-62
2022/09/11 06:43:27;;;;;;;86.78;10.80;;;;;;;;;;5027808;28;20026;-62
2022/09/11 06:45:52;;;;;;;104.00;11.10;;;;;;;;;;5032984;28;20017;-62
2022/09/11 06:48:18;;;;;;;58.50;11.30;;;;;;;;;;5046996;28;20110;-62
2022/09/11 06:50:43;;;;;;;78.70;11.70;;;;;;;;;;5048129;28;20033;-63
2022/09/11 06:53:10;;;;;;;102.80;11.00;;;;;;;;;;5047903;28;20041;-63
2022/09/11 06:55:35;;;;;;;157.77;12.85;;;;;;;;;;5047747;28;20078;-62
2022/09/11 06:58:03;;;;;;;135.40;12.20;;;;;;;;;;5048327;28;20856;-62
2022/09/11 07:00:30;;;;;;;44.17;10.95;;;;;;;;;;5047615;28;20048;-63
2022/09/11 07:02:55;;;;;;;80.82;11.82;;;;;;;;;;5046404;28;20029;-62
2022/09/11 07:05:21;;;;;;;72.85;11.15;;;;;;;;;;5047402;28;20510;-62
2022/09/11 07:07:54;;;;;;;62.95;10.98;;;;;;;;;;5047698;28;20036;-63
2022/09/11 07:10:20;;;;;;;132.75;11.77;;;;;;;;;;5047579;28;20466;-63
2022/09/11 07:12:45;;;;;;;95.32;12.20;;;;;;;;;;5047873;28;20534;-63
2022/09/11 07:15:11;;;;;;;40.08;10.90;;;;;;;;;;5047590;28;20043;-63
2022/09/11 07:17:36;;;;;;;58.95;11.98;;;;;;;;;;5037530;28;20039;-62
2022/09/11 07:20:03;;;;;;;64.35;11.95;;;;;;;;;;5046584;28;20450;-63
2022/09/11 07:22:29;;;;;;;35.50;12.40;;;;;;;;;;5046930;28;20056;-63
2022/09/11 07:24:55;;;;;;;121.90;13.68;;;;;;;;;;5047324;28;20108;-63
2022/09/11 07:27:20;;;;;;;68.70;13.45;;;;;;;;;;5047095;28;20155;-63
2022/09/11 07:29:46;;;;;;;68.05;12.45;;;;;;;;;;5046710;28;20081;-63
2022/09/11 07:32:12;;;;;;;61.88;11.40;;;;;;;;;;5046692;28;20033;-63
2022/09/11 07:34:37;;;;;;;38.92;12.32;;;;;;;;;;5046983;28;20063;-63
2022/09/11 07:37:03;;;;;;;32.53;13.02;;;;;;;;;;5047235;28;20079;-63
2022/09/11 07:39:28;;;;;;;79.82;13.43;;;;;;;;;;5046469;28;20177;-63
2022/09/11 07:41:53;;;;;;;45.83;13.40;;;;;;;;;;5046847;28;20578;-63
2022/09/11 07:44:20;;;;;;;60.05;13.48;;;;;;;;;;5046602;28;20029;-62
2022/09/11 07:46:45;;;;;;;36.45;13.63;;;;;;;;;;5042871;28;20040;-63
2022/09/11 07:49:11;;;;;;;35.75;13.63;;;;;;;;;;5046751;28;20025;-63
2022/09/11 07:51:36;;;;;;;55.92;13.45;;;;;;;;;;5047404;28;20445;-63
2022/09/11 07:54:02;;;;;;;54.05;13.85;;;;;;;;;;5028104;28;20602;-63
2022/09/11 07:56:29;;;;;;;52.92;14.57;;;;;;;;;;5046678;28;20702;-63
2022/09/11 07:58:55;;;;;;;61.35;14.10;;;;;;;;;;5041566;28;20061;-63
2022/09/11 08:01:23;;;;;;;40.40;15.05;;;;;;;;;;5030229;28;20059;-62
2022/09/11 08:03:55;;;;;;;38.58;14.60;;;;;;;;;;5051535;28;20387;-63
2022/09/11 08:06:22;;;;;;;40.90;14.48;;;;;;;;;;5043362;28;20033;-63
2022/09/11 08:08:51;;;;;;;33.85;14.43;;;;;;;;;;5020202;28;20123;-63
2022/09/11 08:11:16;;;;;;;37.67;14.52;;;;;;;;;;5037509;28;20082;-63
2022/09/11 08:13:45;;;;;;;34.63;15.15;;;;;;;;;;5044382;28;20033;-63
2022/09/11 08:16:11;;;;;;;34.17;14.18;;;;;;;;;;5049159;28;20063;-63
2022/09/11 08:18:36;;;;;;;36.03;15.48;;;;;;;;;;5051468;28;20021;-63
2022/09/11 08:21:10;;;;;;;36.80;14.25;;;;;;;;;;5050061;28;20036;-63
2022/09/11 08:23:39;;;;;;;31.73;13.82;;;;;;;;;;5050645;28;20029;-63
2022/09/11 08:26:05;;;;;;;29.05;14.35;;;;;;;;;;5049380;28;20033;-63
2022/09/11 08:28:32;;;;;;;35.75;14.27;;;;;;;;;;5030428;28;20090;-63
2022/09/11 08:30:57;;;;;;;34.17;14.13;;;;;;;;;;5036565;28;20033;-63
2022/09/11 08:33:23;;;;;;;37.60;15.25;;;;;;;;;;5032517;28;20036;-63
2022/09/11 08:35:48;;;;;;;32.05;13.98;;;;;;;;;;5050555;28;21156;-63
2022/09/11 08:38:14;;;;;;;36.10;14.95;;;;;;;;;;5048376;28;20026;-63
2022/09/11 08:40:39;;;;;;;33.35;15.07;;;;;;;;;;5050467;28;20032;-64
2022/09/11 08:43:09;;;;;;;36.85;14.23;;;;;;;;;;5032016;28;20020;-63
2022/09/11 08:45:35;;;;;;;34.38;15.45;;;;;;;;;;5049827;28;20643;-63
2022/09/11 08:48:00;;;;;;;31.63;14.60;;;;;;;;;;5049228;28;20118;-63
2022/09/11 08:50:35;;;;;;;36.03;15.35;;;;;;;;;;5031724;28;20052;-63
2022/09/11 08:53:01;;;;;;;38.80;16.02;;;;;;;;;;5043137;28;20040;-63
2022/09/11 08:55:42;;;;;;;31.48;14.18;;;;;;;;;;5050085;28;20029;-63
2022/09/11 08:58:17;;;;;;;35.70;15.80;;;;;;;;;;5049172;28;20029;-63
2022/09/11 09:00:47;;;;;;;32.78;14.90;;;;;;;;;;5049415;28;20032;-63
2022/09/11 09:03:30;;;;;;;33.42;14.23;;;;;;;;;;5049554;28;20037;-63
2022/09/11 09:06:40;;;;;;;37.87;14.83;;;;;;;;;;5048839;28;20430;-63
2022/09/11 09:09:16;;;;;;;34.50;12.50;;;;;;;;;;4968050;28;20874;-63
2022/09/11 09:11:42;;;;;;;31.75;14.57;;;;;;;;;;5042056;28;20128;-63
2022/09/11 09:14:13;;;;;;;28.95;12.77;;;;;;;;;;5029183;28;20120;-63
2022/09/11 09:16:49;;;;;;;28.60;13.93;;;;;;;;;;5046168;28;20041;-63
2022/09/11 09:19:22;;;;;;;32.67;13.00;;;;;;;;;;5042861;28;20028;-63
2022/09/11 09:22:25;;;;;;;28.02;13.07;;;;;;;;;;5046611;28;20053;-63
2022/09/11 09:24:59;;;;;;;30.60;13.85;;;;;;;;;;5034834;28;20038;-63
2022/09/11 09:27:38;;;;;;;27.27;12.30;;;;;;;;;;5031983;28;20045;-63
2022/09/11 09:30:13;;;;;;;31.95;12.93;;;;;;;;;;5032714;28;20029;-63
2022/09/11 09:32:44;;;;;;;33.42;14.13;;;;;;;;;;5028589;28;20564;-63
2022/09/11 09:35:23;;;;;;;30.98;12.40;;;;;;;;;;5035111;28;20206;-63
2022/09/11 09:37:49;;;;;;;27.83;12.73;;;;;;;;;;5048453;28;20036;-63
2022/09/11 09:40:17;;;;;;;28.40;12.98;;;;;;;;;;5047912;28;20041;-63
2022/09/11 09:43:07;;;;;;;31.27;13.60;;;;;;;;;;5030617;28;20448;-63
2022/09/11 09:45:44;;;;;;;29.55;12.57;;;;;;;;;;5040852;28;20041;-63
2022/09/11 09:48:10;;;;;;;26.77;13.02;;;;;;;;;;5047875;28;20037;-63
2022/09/11 09:50:41;;;;;;;28.60;13.00;;;;;;;;;;5047157;28;20395;-63
2022/09/11 09:53:12;;;;;;;29.95;11.98;;;;;;;;;;5047261;28;20530;-63
2022/09/11 09:55:39;;;;;;;28.60;12.95;;;;;;;;;;5025155;28;20049;-64
2022/09/11 09:58:06;;;;;;;31.50;14.32;;;;;;;;;;5038311;28;20044;-63
2022/09/11 10:00:34;;;;;;;27.25;12.88;;;;;;;;;;5034136;28;20735;-63
2022/09/11 10:03:16;;;;;;;26.42;12.88;;;;;;;;;;5028265;28;20044;-63
2022/09/11 10:05:43;;;;;;;24.92;12.20;;;;;;;;;;5028077;28;20582;-63
2022/09/11 10:08:24;;;;;;;28.92;11.63;;;;;;;;;;5027190;28;20040;-63
2022/09/11 10:11:00;;;;;;;30.17;14.35;;;;;;;;;;5028138;28;20029;-63
2022/09/11 10:13:29;;;;;;;27.08;12.93;;;;;;;;;;5027399;28;20087;-63
2022/09/11 10:16:00;;;;;;;22.70;11.82;;;;;;;;;;5028076;28;20690;-63
2022/09/11 10:18:32;;;;;;;29.10;12.85;;;;;;;;;;5030596;28;20041;-63
2022/09/11 10:21:21;;;;;;;26.67;11.48;;;;;;;;;;5011857;28;20072;-63
2022/09/11 10:24:00;;;;;;;29.77;12.27;;;;;;;;;;5038253;28;20049;-64
2022/09/11 10:26:44;;;;;;;27.40;12.32;;;;;;;;;;5038979;28;20048;-64
2022/09/11 10:29:25;;;;;;;29.73;11.55;;;;;;;;;;5046485;28;20128;-64
2022/09/11 10:31:53;;;;;;;30.10;13.20;;;;;;;;;;5047413;28;20029;-63
2022/09/11 10:34:22;;;;;;;29.63;13.00;;;;;;;;;;5047275;28;20532;-63
2022/09/11 10:37:02;;;;;;;30.02;12.73;;;;;;;;;;5048520;28;20033;-64
2022/09/11 10:39:31;;;;;;;30.02;13.05;;;;;;;;;;5040246;28;20091;-63
2022/09/11 10:42:04;;;;;;;24.52;10.35;;;;;;;;;;5047980;28;20087;-64
2022/09/11 10:44:29;;;;;;;24.45;10.90;;;;;;;;;;5047192;28;20133;-64
2022/09/11 10:47:05;;;;;;;25.13;11.27;;;;;;;;;;5039433;28;20112;-64
2022/09/11 10:49:31;;;;;;;30.65;13.75;;;;;;;;;;5039857;28;20185;-64
2022/09/11 10:52:02;;;;;;;28.65;12.48;;;;;;;;;;5047851;28;20460;-64
2022/09/11 10:54:36;;;;;;;22.23;10.43;;;;;;;;;;5045886;28;20595;-63
2022/09/11 10:57:58;;;;;;;24.60;9.63;;;;;;;;;;5036838;28;20052;-64
2022/09/11 11:00:30;;;;;;;18.08;8.95;;;;;;;;;;4927542;29;20050;-64
2022/09/11 11:03:05;;;;;;;23.08;9.98;;;;;;;;;;4931705;29;20075;-64
2022/09/11 11:06:05;;;;;;;23.90;9.25;;;;;;;;;;5002056;28;20053;-64
2022/09/11 11:09:05;;;;;;;22.88;9.10;;;;;;;;;;5003831;28;20044;-64
2022/09/11 11:11:42;;;;;;;14.95;6.88;;;;;;;;;;5047086;28;20039;-64
2022/09/11 11:14:22;;;;;;;16.33;8.23;;;;;;;;;;5047156;28;20029;-63
2022/09/11 11:16:56;;;;;;;12.18;6.00;;;;;;;;;;5046757;28;20120;-64
2022/09/11 11:19:50;;;;;;;11.07;6.00;;;;;;;;;;5027736;28;20048;-63
2022/09/11 11:22:44;;;;;;;9.45;5.88;;;;;;;;;;5045993;28;20035;-64
2022/09/11 11:25:26;;;;;;;;;;;;;;;;;;5047001;28;20021;-64
2022/09/11 11:28:10;;;;;;;12.35;6.28;;;;;;;;;;5044012;28;19916;-63
2022/09/11 11:30:50;;;;;;;12.90;6.20;;;;;;;;;;5046455;28;20049;-64
2022/09/11 11:33:25;;;;;;;16.90;7.38;;;;;;;;;;5046069;28;20043;-64
2022/09/11 11:36:08;;;;;;;17.48;8.15;;;;;;;;;;5046074;28;20056;-63
2022/09/11 11:38:46;;;;;;;14.75;8.20;;;;;;;;;;5045481;28;20037;-64
2022/09/11 11:41:19;;;;;;;15.27;7.75;;;;;;;;;;5046111;28;20398;-64
2022/09/11 11:43:47;;;;;;;15.80;8.23;;;;;;;;;;5027458;28;20037;-63
2022/09/11 11:46:18;;;;;;;14.43;7.07;;;;;;;;;;5046655;28;20036;-64
2022/09/11 11:49:06;;;;;;;14.60;7.70;;;;;;;;;;5046383;28;20623;-64
2022/09/11 11:51:43;;;;;;;14.02;6.95;;;;;;;;;;5045745;28;20048;-64
2022/09/11 11:54:36;;;;;;;20.73;8.35;;;;;;;;;;5039795;28;20452;-63
2022/09/11 11:57:10;;;;;;;13.37;7.17;;;;;;;;;;5035167;28;20052;-63
2022/09/11 11:59:45;;;;;;;14.10;7.70;;;;;;;;;;5025782;28;20045;-63
2022/09/11 12:02:19;;;;;;;12.07;6.93;;;;;;;;;;5035494;28;20044;-64
2022/09/11 12:04:49;;;;;;;13.45;7.07;;;;;;;;;;5037528;28;20124;-63
2022/09/11 12:07:20;;;;;;;13.85;7.20;;;;;;;;;;5034337;28;20024;-64
2022/09/11 12:09:48;;;;;;;16.15;7.15;;;;;;;;;;5037666;28;20123;-64
2022/09/11 12:12:15;;;;;;;14.20;6.53;;;;;;;;;;5035636;28;20044;-64
2022/09/11 12:14:49;;;;;;;13.23;7.07;;;;;;;;;;5039475;28;20440;-64
2022/09/11 12:17:26;;;;;;;9.95;6.00;;;;;;;;;;5039544;28;20048;-64
2022/09/11 12:20:10;;;;;;;11.98;6.00;;;;;;;;;;5037797;28;20048;-63
2022/09/11 12:22:49;;;;;;;11.88;6.15;;;;;;;;;;5041112;28;20044;-64
2022/09/11 12:25:17;;;;;;;11.88;6.25;;;;;;;;;;5033968;28;20086;-64
2022/09/11 12:27:42;;;;;;;13.00;6.22;;;;;;;;;;5038604;28;20091;-64
2022/09/11 12:30:17;;;;;;;13.00;5.82;;;;;;;;;;5041628;28;20491;-63
2022/09/11 12:32:48;;;;;;;12.02;6.55;;;;;;;;;;5045528;28;20622;-64
2022/09/11 12:35:28;;;;;;;9.48;5.72;;;;;;;;;;5043010;28;20041;-64
2022/09/11 12:38:02;;;;;;;12.13;5.60;;;;;;;;;;5040472;28;20127;-64
2022/09/11 12:40:37;;;;;;;10.90;6.32;;;;;;;;;;5038301;28;20537;-64
2022/09/11 12:43:27;;;;;;;12.95;5.38;;;;;;;;;;5037939;28;20033;-64
2022/09/11 12:45:52;;;;;;;9.90;6.20;;;;;;;;;;5040757;28;20510;-64
2022/09/11 12:48:21;;;;;;;10.02;5.72;;;;;;;;;;5044483;28;20039;-64
2022/09/11 12:50:50;;;;;;;11.45;5.45;;;;;;;;;;5044120;28;20063;-64
2022/09/11 12:53:22;;;;;;;10.63;5.75;;;;;;;;;;5044939;28;20033;-64
2022/09/11 12:55:59;;;;;;;12.20;5.90;;;;;;;;;;5042376;28;20072;-64
2022/09/11 12:58:34;;;;;;;8.90;5.68;;;;;;;;;;5045181;28;20045;-64
2022/09/11 13:01:23;;;;;;;9.77;5.85;;;;;;;;;;5021226;28;20114;-64
2022/09/11 13:04:09;;;;;;;9.35;5.05;;;;;;;;;;5018415;28;20084;-64
2022/09/11 13:06:53;;;;;;;10.57;5.03;;;;;;;;;;5039960;28;20759;-64
2022/09/11 13:09:26;;;;;;;8.85;5.13;;;;;;;;;;5039831;28;20048;-64
2022/09/11 13:11:54;;;;;;;9.45;5.18;;;;;;;;;;5046539;28;20041;-64
2022/09/11 13:14:28;;;;;;;8.30;5.50;;;;;;;;;;5043591;28;20030;-64
2022/09/11 13:16:55;;;;;;;7.68;5.05;;;;;;;;;;5040222;28;20550;-64
2022/09/11 13:19:21;;;;;;;9.52;5.22;;;;;;;;;;5029668;28;20090;-63
2022/09/11 13:21:50;;;;;;;10.25;5.70;;;;;;;;;;5030651;28;20021;-64
2022/09/11 13:24:26;;;;;;;7.78;4.85;;;;;;;;;;5029069;28;20041;-64
2022/09/11 13:26:58;;;;;;;8.50;5.25;;;;;;;;;;5047319;28;20298;-64
2022/09/11 13:29:28;;;;;;;14.32;6.28;;;;;;;;;;5047181;28;20048;-63
2022/09/11 13:31:56;;;;;;;9.57;5.38;;;;;;;;;;5038507;28;20037;-63
2022/09/11 13:34:24;;;;;;;8.25;5.05;;;;;;;;;;5027277;28;20445;-63
2022/09/11 13:36:50;;;;;;;8.82;5.40;;;;;;;;;;5024910;28;20632;-64
2022/09/11 13:39:18;;;;;;;9.55;5.78;;;;;;;;;;5027259;28;20129;-63
2022/09/11 13:41:46;;;;;;;8.30;4.88;;;;;;;;;;5027111;28;20049;-64
2022/09/11 13:44:30;;;;;;;9.38;5.25;;;;;;;;;;5031322;28;20513;-64
2022/09/11 13:46:59;;;;;;;6.97;4.80;;;;;;;;;;5036460;28;20502;-64
2022/09/11 13:49:35;;;;;;;8.00;5.55;;;;;;;;;;5036772;28;20847;-63
2022/09/11 13:52:04;;;;;;;8.13;4.68;;;;;;;;;;5016104;28;20060;-64
2022/09/11 13:54:32;;;;;;;6.47;4.97;;;;;;;;;;5036089;28;20116;-64
2022/09/11 13:57:00;;;;;;;8.77;4.82;;;;;;;;;;5034512;28;20037;-64
2022/09/11 13:59:38;;;;;;;7.60;4.57;;;;;;;;;;5035752;28;20044;-64
2022/09/11 14:02:24;;;;;;;6.35;4.50;;;;;;;;;;5041537;28;20036;-64
2022/09/11 14:04:51;;;;;;;9.93;4.75;;;;;;;;;;5037502;28;20052;-64
2022/09/11 14:07:23;;;;;;;10.23;5.00;;;;;;;;;;5037131;28;20037;-64
2022/09/11 14:10:00;;;;;;;9.23;4.78;;;;;;;;;;5044597;28;20017;-64
2022/09/11 14:12:27;;;;;;;5.43;4.55;;;;;;;;;;5047097;28;20127;-64
2022/09/11 14:14:55;;;;;;;9.30;4.82;;;;;;;;;;5029922;28;20040;-64
2022/09/11 14:17:21;;;;;;;6.32;5.10;;;;;;;;;;5047162;28;20156;-64
2022/09/11 14:19:50;;;;;;;5.82;4.30;;;;;;;;;;5046653;28;20866;-64
2022/09/11 14:22:24;;;;;;;7.80;4.50;;;;;;;;;;5041589;28;20035;-64
2022/09/11 14:24:56;;;;;;;5.95;4.25;;;;;;;;;;5042049;28;20068;-63
2022/09/11 14:27:31;;;;;;;5.47;4.30;;;;;;;;;;5028577;28;20557;-64
2022/09/11 14:29:57;;;;;;;6.80;4.28;;;;;;;;;;5046699;28;20597;-64
2022/09/11 14:32:37;;;;;;;8.18;4.55;;;;;;;;;;5041079;28;20043;-64
2022/09/11 14:35:06;;;;;;;7.10;4.70;;;;;;;;;;5035442;28;20051;-64
2022/09/11 14:37:34;;;;;;;6.45;4.10;;;;;;;;;;5035967;28;20569;-64
2022/09/11 14:40:25;;;;;;;6.25;4.25;;;;;;;;;;5034299;28;20032;-64
2022/09/11 14:42:51;;;;;;;4.60;4.00;;;;;;;;;;5030437;28;20088;-64
2022/09/11 14:45:19;;;;;;;7.05;4.35;;;;;;;;;;5009024;28;20041;-64
2022/09/11 14:47:45;;;;;;;7.55;4.63;;;;;;;;;;5032580;28;20033;-64
2022/09/11 14:50:11;;;;;;;6.75;4.53;;;;;;;;;;5041132;28;20112;-64